createdAt,value
2022-09-27T00:01:04.153Z,100.00
2022-09-27T00:03:31.601Z,100.00
2022-09-27T00:06:12.147Z,100.00
2022-09-27T00:08:39.296Z,100.00
2022-09-27T00:11:23.191Z,100.00
2022-09-27T00:13:50.179Z,100.00
2022-09-27T00:16:17.409Z,100.00
2022-09-27T00:18:44.427Z,100.00
2022-09-27T00:21:13.311Z,100.00
2022-09-27T00:23:40.947Z,100.00
2022-09-27T00:26:10.980Z,100.00
2022-09-27T00:28:38.385Z,100.00
2022-09-27T00:31:17.716Z,100.00
2022-09-27T00:33:44.869Z,100.00
2022-09-27T00:36:12.072Z,100.00
2022-09-27T00:38:41.252Z,100.00
2022-09-27T00:41:15.374Z,100.00
2022-09-27T00:44:04.143Z,100.00
2022-09-27T00:46:46.062Z,100.00
2022-09-27T00:49:18.532Z,100.00
2022-09-27T00:51:50.500Z,100.00
2022-09-27T00:54:21.390Z,100.00
2022-09-27T00:56:49.729Z,100.00
2022-09-27T00:59:21.787Z,100.00
2022-09-27T01:01:49.622Z,100.00
2022-09-27T01:04:21.664Z,100.00
2022-09-27T01:06:48.764Z,100.00
2022-09-27T01:09:16.408Z,100.00
2022-09-27T01:12:01.936Z,100.00
2022-09-27T01:14:38.127Z,100.00
2022-09-27T01:17:13.782Z,100.00
2022-09-27T01:19:49.462Z,100.00
2022-09-27T01:22:20.637Z,100.00
2022-09-27T01:25:00.162Z,100.00
2022-09-27T01:27:44.261Z,100.00
2022-09-27T01:30:14.741Z,100.00
2022-09-27T01:32:57.405Z,100.00
2022-09-27T01:36:00.636Z,100.00
2022-09-27T01:38:56.935Z,100.00
2022-09-27T01:41:39.309Z,100.00
2022-09-27T01:44:25.664Z,100.00
2022-09-27T01:47:20.263Z,100.00
2022-09-27T01:50:14.146Z,100.00
2022-09-27T01:52:45.268Z,100.00
2022-09-27T01:55:16.551Z,100.00
2022-09-27T01:58:34.424Z,100.00
2022-09-27T02:01:03.334Z,100.00
2022-09-27T02:03:36.865Z,100.00
2022-09-27T02:06:27.950Z,100.00
2022-09-27T02:09:13.891Z,100.00
2022-09-27T02:12:08.706Z,100.00
2022-09-27T02:14:55.481Z,100.00
2022-09-27T02:18:02.193Z,100.00
2022-09-27T02:20:30.999Z,100.00
2022-09-27T02:23:19.000Z,100.00
2022-09-27T02:26:04.140Z,100.00
2022-09-27T02:28:35.781Z,100.00
2022-09-27T02:31:03.596Z,100.00
2022-09-27T02:33:42.014Z,100.00
2022-09-27T02:36:09.621Z,100.00
2022-09-27T02:38:36.977Z,100.00
2022-09-27T02:41:04.389Z,100.00
2022-09-27T02:43:33.135Z,100.00
2022-09-27T02:46:11.565Z,100.00
2022-09-27T02:48:57.612Z,100.00
2022-09-27T02:51:42.726Z,100.00
2022-09-27T02:54:47.278Z,100.00
2022-09-27T02:57:56.560Z,100.00
2022-09-27T03:00:41.177Z,100.00
2022-09-27T03:04:23.417Z,100.00
2022-09-27T03:06:51.550Z,100.00
2022-09-27T03:09:20.797Z,100.00
2022-09-27T03:11:47.968Z,100.00
2022-09-27T03:14:15.701Z,100.00
2022-09-27T03:16:53.275Z,100.00
2022-09-27T03:19:49.120Z,100.00
2022-09-27T03:22:45.564Z,100.00
2022-09-27T03:25:12.723Z,100.00
2022-09-27T03:27:40.117Z,100.00
2022-09-27T03:30:07.669Z,100.00
2022-09-27T03:32:34.743Z,100.00
2022-09-27T03:35:01.712Z,100.00
2022-09-27T03:37:28.736Z,100.00
2022-09-27T03:39:55.825Z,100.00
2022-09-27T03:42:22.986Z,100.00
2022-09-27T03:44:51.915Z,100.00
2022-09-27T03:47:19.053Z,100.00
2022-09-27T03:49:46.168Z,100.00
2022-09-27T03:52:14.214Z,100.00
2022-09-27T03:54:41.265Z,100.00
2022-09-27T03:57:08.598Z,100.00
2022-09-27T03:59:36.727Z,100.00
2022-09-27T04:02:23.994Z,100.00
2022-09-27T04:05:14.181Z,100.00
2022-09-27T04:07:47.199Z,100.00
2022-09-27T04:10:15.542Z,100.00
2022-09-27T04:12:44.849Z,100.00
2022-09-27T04:15:12.235Z,100.00
2022-09-27T04:18:06.561Z,100.00
2022-09-27T04:20:34.153Z,100.00
2022-09-27T04:23:05.240Z,100.00
2022-09-27T04:25:32.366Z,100.00
2022-09-27T04:28:04.429Z,100.00
2022-09-27T04:30:31.800Z,100.00
2022-09-27T04:33:18.778Z,100.00
2022-09-27T04:35:54.689Z,100.00
2022-09-27T04:38:21.788Z,100.00
2022-09-27T04:40:49.038Z,100.00
2022-09-27T04:43:16.719Z,100.00
2022-09-27T04:45:44.174Z,100.00
2022-09-27T04:48:11.229Z,100.00
2022-09-27T04:50:39.342Z,100.00
2022-09-27T04:53:06.702Z,100.00
2022-09-27T04:55:34.128Z,100.00
2022-09-27T04:58:01.387Z,100.00
2022-09-27T05:00:28.811Z,100.00
2022-09-27T05:03:03.291Z,100.00
2022-09-27T05:05:53.312Z,100.00
2022-09-27T05:08:20.360Z,100.00
2022-09-27T05:11:05.717Z,100.00
2022-09-27T05:13:33.631Z,100.00
2022-09-27T05:16:04.593Z,100.00
2022-09-27T05:18:57.561Z,100.00
2022-09-27T05:21:47.144Z,100.00
2022-09-27T05:24:14.181Z,100.00
2022-09-27T05:26:41.195Z,100.00
2022-09-27T05:29:08.271Z,100.00
2022-09-27T05:31:35.491Z,100.00
2022-09-27T05:34:02.701Z,100.00
2022-09-27T05:36:36.544Z,100.00
2022-09-27T05:39:04.041Z,100.00
2022-09-27T05:41:31.274Z,100.00
2022-09-27T05:43:59.285Z,100.00
2022-09-27T05:46:26.401Z,100.00
2022-09-27T05:48:53.665Z,100.00
2022-09-27T05:51:20.732Z,100.00
2022-09-27T05:53:47.913Z,100.00
2022-09-27T05:56:22.571Z,100.00
2022-09-27T05:59:18.755Z,100.00
2022-09-27T06:02:05.820Z,100.00
2022-09-27T06:04:51.584Z,100.00
2022-09-27T06:07:51.240Z,100.00
2022-09-27T06:10:24.435Z,100.00
2022-09-27T06:12:51.654Z,100.00
2022-09-27T06:15:31.716Z,100.00
2022-09-27T06:18:04.582Z,100.00
2022-09-27T06:20:32.328Z,100.00
2022-09-27T06:23:10.197Z,100.00
2022-09-27T06:25:39.058Z,100.00
2022-09-27T06:28:32.849Z,100.00
2022-09-27T06:30:59.945Z,100.00
2022-09-27T06:33:40.501Z,100.00
2022-09-27T06:36:08.272Z,100.00
2022-09-27T06:38:37.429Z,100.00
2022-09-27T06:41:36.330Z,100.00
2022-09-27T06:44:06.439Z,100.00
2022-09-27T06:46:36.116Z,100.00
2022-09-27T06:49:12.043Z,100.00
2022-09-27T06:51:40.398Z,100.00
2022-09-27T06:54:07.522Z,100.00
2022-09-27T06:56:34.575Z,100.00
2022-09-27T06:59:01.824Z,100.00
2022-09-27T07:01:44.874Z,100.00
2022-09-27T07:04:18.313Z,100.00
2022-09-27T07:07:03.967Z,100.00
2022-09-27T07:09:36.624Z,100.00
2022-09-27T07:12:03.788Z,100.00
2022-09-27T07:14:31.743Z,100.00
2022-09-27T07:16:58.868Z,100.00
2022-09-27T07:19:28.310Z,100.00
2022-09-27T07:21:56.336Z,100.00
2022-09-27T07:24:24.161Z,100.00
2022-09-27T07:26:51.371Z,100.00
2022-09-27T07:29:21.150Z,100.00
2022-09-27T07:31:50.588Z,100.00
2022-09-27T07:34:17.695Z,100.00
2022-09-27T07:36:44.748Z,100.00
2022-09-27T07:39:12.317Z,100.00
2022-09-27T07:41:39.422Z,100.00
2022-09-27T07:44:07.218Z,100.00
2022-09-27T07:46:40.557Z,100.00
2022-09-27T07:49:17.229Z,100.00
2022-09-27T07:52:16.697Z,98.83
2022-09-27T07:54:52.170Z,99.23
2022-09-27T07:57:48.326Z,100.00
2022-09-27T08:00:18.371Z,100.00
2022-09-27T08:02:46.558Z,100.00
2022-09-27T08:05:14.655Z,100.00
2022-09-27T08:07:42.625Z,99.46
2022-09-27T08:10:09.788Z,98.58
2022-09-27T08:12:37.834Z,99.03
2022-09-27T08:15:05.464Z,98.99
2022-09-27T08:17:32.965Z,95.93
2022-09-27T08:20:15.841Z,97.18
2022-09-27T08:22:56.573Z,97.67
2022-09-27T08:25:31.682Z,96.54
2022-09-27T08:28:04.526Z,95.07
2022-09-27T08:30:43.998Z,92.88
2022-09-27T08:33:11.226Z,91.01
2022-09-27T08:35:38.233Z,90.50
2022-09-27T08:38:06.195Z,92.78
2022-09-27T08:40:48.896Z,91.71
2022-09-27T08:43:43.701Z,90.45
2022-09-27T08:46:29.457Z,91.90
2022-09-27T08:49:09.196Z,92.70
2022-09-27T08:51:36.886Z,91.79
2022-09-27T08:54:16.624Z,88.76
2022-09-27T08:56:43.728Z,88.02
2022-09-27T08:59:17.397Z,86.30
2022-09-27T09:01:45.247Z,81.63
2022-09-27T09:04:26.284Z,83.93
2022-09-27T09:07:07.896Z,88.61
2022-09-27T09:09:35.338Z,83.30
2022-09-27T09:12:45.551Z,86.45
2022-09-27T09:15:37.357Z,83.25
2022-09-27T09:18:13.804Z,83.89
2022-09-27T09:21:20.130Z,83.90
2022-09-27T09:23:59.196Z,82.33
2022-09-27T09:26:58.270Z,85.88
2022-09-27T09:29:53.664Z,84.94
2022-09-27T09:32:20.729Z,83.46
2022-09-27T09:34:56.172Z,84.95
2022-09-27T09:37:40.483Z,84.94
2022-09-27T09:40:21.241Z,80.84
2022-09-27T09:43:02.926Z,81.60
2022-09-27T09:45:34.510Z,83.66
2022-09-27T09:48:21.263Z,84.63
2022-09-27T09:50:53.028Z,84.16
2022-09-27T09:53:34.859Z,78.62
2022-09-27T09:56:07.068Z,82.38
2022-09-27T09:58:55.219Z,78.39
2022-09-27T10:01:33.181Z,79.53
2022-09-27T10:04:00.356Z,79.93
2022-09-27T10:06:30.223Z,83.29
2022-09-27T10:08:59.424Z,82.19
2022-09-27T10:11:39.445Z,82.74
2022-09-27T10:14:14.397Z,75.86
2022-09-27T10:16:47.404Z,79.21
2022-09-27T10:19:20.528Z,78.65
2022-09-27T10:21:50.806Z,80.14
2022-09-27T10:24:18.983Z,75.65
2022-09-27T10:27:07.243Z,74.47
2022-09-27T10:29:38.379Z,77.53
2022-09-27T10:32:24.366Z,74.25
2022-09-27T10:35:29.839Z,76.63
2022-09-27T10:38:22.375Z,74.89
2022-09-27T10:40:53.433Z,73.74
2022-09-27T10:43:30.181Z,75.60
2022-09-27T10:46:15.761Z,73.53
2022-09-27T10:48:46.464Z,74.63
2022-09-27T10:51:31.479Z,73.12
2022-09-27T10:53:59.715Z,71.50
2022-09-27T10:56:34.138Z,71.41
2022-09-27T10:59:03.877Z,69.57
2022-09-27T11:01:42.646Z,69.22
2022-09-27T11:04:35.621Z,69.99
2022-09-27T11:07:08.923Z,70.98
2022-09-27T11:09:46.580Z,72.65
2022-09-27T11:12:14.988Z,71.66
2022-09-27T11:14:49.512Z,70.74
2022-09-27T11:17:27.416Z,71.97
2022-09-27T11:20:28.511Z,72.99
2022-09-27T11:23:32.598Z,74.22
2022-09-27T11:26:46.726Z,76.08
2022-09-27T11:29:32.635Z,73.86
2022-09-27T11:33:19.771Z,76.93
2022-09-27T11:35:57.752Z,77.33
2022-09-27T11:38:53.485Z,78.96
2022-09-27T11:41:51.757Z,81.58
2022-09-27T11:44:44.900Z,80.55
2022-09-27T11:47:50.374Z,82.27
2022-09-27T11:50:45.249Z,82.97
2022-09-27T11:53:40.727Z,80.45
2022-09-27T11:56:33.115Z,81.72
2022-09-27T11:59:50.397Z,78.93
2022-09-27T12:02:51.612Z,80.41
2022-09-27T12:05:33.034Z,78.40
2022-09-27T12:08:12.805Z,78.19
2022-09-27T12:10:43.511Z,78.69
2022-09-27T12:13:12.995Z,77.93
2022-09-27T12:15:44.536Z,78.70
2022-09-27T12:18:28.125Z,80.18
2022-09-27T12:20:55.905Z,80.19
2022-09-27T12:23:43.310Z,78.91
2022-09-27T12:26:40.920Z,81.21
2022-09-27T12:29:38.275Z,80.84
2022-09-27T12:32:20.474Z,81.20
2022-09-27T12:34:50.584Z,81.11
2022-09-27T12:37:27.793Z,81.66
2022-09-27T12:40:06.646Z,81.35
2022-09-27T12:42:47.431Z,82.12
2022-09-27T12:46:02.317Z,82.93
2022-09-27T12:48:46.116Z,83.37
2022-09-27T12:51:19.286Z,82.66
2022-09-27T12:54:14.932Z,82.19
2022-09-27T12:56:47.862Z,81.28
2022-09-27T12:59:33.874Z,80.88
2022-09-27T13:02:29.662Z,79.20
2022-09-27T13:05:14.298Z,79.80
2022-09-27T13:07:55.407Z,78.68
2022-09-27T13:10:39.038Z,77.65
2022-09-27T13:13:23.224Z,77.38
2022-09-27T13:15:50.421Z,78.69
2022-09-27T13:18:56.101Z,80.55
2022-09-27T13:21:51.683Z,77.24
2022-09-27T13:27:58.162Z,79.64
2022-09-27T13:30:35.215Z,78.97
2022-09-27T13:33:11.374Z,80.71
2022-09-27T13:36:17.039Z,79.05
2022-09-27T13:38:59.161Z,79.17
2022-09-27T13:41:28.593Z,80.20
2022-09-27T13:44:00.989Z,81.18
2022-09-27T13:46:37.181Z,79.58
2022-09-27T13:49:18.766Z,80.20
2022-09-27T13:52:21.931Z,80.26
2022-09-27T13:55:26.907Z,80.25
2022-09-27T13:58:35.515Z,80.63
2022-09-27T14:01:16.669Z,81.14
2022-09-27T14:03:56.595Z,77.63
2022-09-27T14:06:34.373Z,77.62
2022-09-27T14:09:07.325Z,80.47
2022-09-27T14:11:42.434Z,78.33
2022-09-27T14:14:19.475Z,77.96
2022-09-27T14:16:52.811Z,75.59
2022-09-27T14:19:22.749Z,73.99
2022-09-27T14:21:50.997Z,74.40
2022-09-27T14:24:38.118Z,75.49
2022-09-27T14:27:28.684Z,76.60
2022-09-27T14:30:15.231Z,76.52
2022-09-27T14:32:48.613Z,77.78
2022-09-27T14:35:21.370Z,74.03
2022-09-27T14:37:52.202Z,76.61
2022-09-27T14:40:21.175Z,78.23
2022-09-27T14:42:53.780Z,77.71
2022-09-27T14:45:24.799Z,76.44
2022-09-27T14:47:51.880Z,76.58
2022-09-27T14:50:26.273Z,78.00
2022-09-27T14:52:53.232Z,79.71
2022-09-27T14:55:23.098Z,79.54
2022-09-27T14:57:55.615Z,79.73
2022-09-27T15:00:25.903Z,79.86
2022-09-27T15:02:54.634Z,80.11
2022-09-27T15:05:27.573Z,80.12
2022-09-27T15:07:56.206Z,79.52
2022-09-27T15:10:25.731Z,80.88
2022-09-27T15:12:55.498Z,80.60
2022-09-27T15:15:25.331Z,81.44
2022-09-27T15:17:52.938Z,81.04
2022-09-27T15:20:34.840Z,81.37
2022-09-27T15:23:04.275Z,79.08
2022-09-27T15:25:35.197Z,80.36
2022-09-27T15:28:06.184Z,79.71
2022-09-27T15:31:00.140Z,80.04
2022-09-27T15:33:29.765Z,79.60
2022-09-27T15:36:00.214Z,79.71
2022-09-27T15:38:31.163Z,78.51
2022-09-27T15:41:08.602Z,79.26
2022-09-27T15:43:40.136Z,79.22
2022-09-27T15:46:22.665Z,79.56
2022-09-27T15:49:18.059Z,80.31
2022-09-27T15:51:47.807Z,81.18
2022-09-27T15:54:18.367Z,80.61
2022-09-27T15:56:45.649Z,80.01
2022-09-27T15:59:20.595Z,80.76
2022-09-27T16:01:48.467Z,81.69
2022-09-27T16:04:15.460Z,82.38
2022-09-27T16:06:42.528Z,81.86
2022-09-27T16:09:15.890Z,81.64
2022-09-27T16:11:43.264Z,82.48
2022-09-27T16:14:10.291Z,82.48
2022-09-27T16:16:38.103Z,82.29
2022-09-27T16:19:05.216Z,82.68
2022-09-27T16:21:32.233Z,84.19
2022-09-27T16:24:01.879Z,84.35
2022-09-27T16:26:32.383Z,84.98
2022-09-27T16:28:59.410Z,86.32
2022-09-27T16:31:26.568Z,86.11
2022-09-27T16:33:53.572Z,86.00
2022-09-27T16:36:21.661Z,85.68
2022-09-27T16:38:50.461Z,87.61
2022-09-27T16:41:21.411Z,86.62
2022-09-27T16:43:48.751Z,87.55
2022-09-27T16:46:16.123Z,88.41
2022-09-27T16:48:43.114Z,88.08
2022-09-27T16:51:21.330Z,89.85
2022-09-27T16:53:48.397Z,90.74
2022-09-27T16:56:15.431Z,92.55
2022-09-27T16:58:42.455Z,91.92
2022-09-27T17:01:09.548Z,93.37
2022-09-27T17:03:36.600Z,92.09
2022-09-27T17:06:03.780Z,94.18
2022-09-27T17:08:30.939Z,92.08
2022-09-27T17:10:57.960Z,93.84
2022-09-27T17:13:24.965Z,93.51
2022-09-27T17:15:51.957Z,94.76
2022-09-27T17:18:18.977Z,95.83
2022-09-27T17:20:45.939Z,94.83
2022-09-27T17:23:12.914Z,94.65
2022-09-27T17:25:39.936Z,94.54
2022-09-27T17:28:06.906Z,94.17
2022-09-27T17:30:33.915Z,93.10
2022-09-27T17:33:00.874Z,93.13
2022-09-27T17:35:27.820Z,91.60
2022-09-27T17:37:54.887Z,93.01
2022-09-27T17:40:21.934Z,92.75
2022-09-27T17:42:48.913Z,92.39
2022-09-27T17:45:15.999Z,93.29
2022-09-27T17:47:42.935Z,93.55
2022-09-27T17:50:10.533Z,94.13
2022-09-27T17:52:37.475Z,92.78
2022-09-27T17:55:04.879Z,92.50
2022-09-27T17:57:31.900Z,94.48
2022-09-27T17:59:58.915Z,95.19
2022-09-27T18:02:26.437Z,95.54
2022-09-27T18:04:53.482Z,96.70
2022-09-27T18:07:20.539Z,96.80
2022-09-27T18:09:47.519Z,97.51
2022-09-27T18:12:14.482Z,98.12
2022-09-27T18:14:41.429Z,97.87
2022-09-27T18:17:08.712Z,98.08
2022-09-27T18:19:35.663Z,98.27
2022-09-27T18:22:02.602Z,98.78
2022-09-27T18:24:29.747Z,99.19
2022-09-27T18:26:56.699Z,99.02
2022-09-27T18:29:23.641Z,99.57
2022-09-27T18:31:50.692Z,100.00
2022-09-27T18:34:18.488Z,100.00
2022-09-27T18:36:46.485Z,100.00
2022-09-27T18:39:15.814Z,100.00
2022-09-27T18:41:43.334Z,100.00
2022-09-27T18:44:13.954Z,100.00
2022-09-27T18:46:41.553Z,100.00
2022-09-27T18:49:10.824Z,100.00
2022-09-27T18:51:38.774Z,100.00
2022-09-27T18:54:08.029Z,100.00
2022-09-27T18:56:35.191Z,100.00
2022-09-27T18:59:02.216Z,100.00
2022-09-27T19:01:29.188Z,100.00
2022-09-27T19:03:56.188Z,100.00
2022-09-27T19:06:23.405Z,100.00
2022-09-27T19:08:54.867Z,100.00
2022-09-27T19:11:22.083Z,100.00
2022-09-27T19:13:51.758Z,100.00
2022-09-27T19:16:20.231Z,100.00
2022-09-27T19:18:47.846Z,100.00
2022-09-27T19:21:17.948Z,100.00
2022-09-27T19:23:45.549Z,100.00
2022-09-27T19:26:15.721Z,100.00
2022-09-27T19:28:44.133Z,100.00
2022-09-27T19:31:19.811Z,100.00
2022-09-27T19:33:47.330Z,100.00
2022-09-27T19:36:16.421Z,100.00
2022-09-27T19:38:44.040Z,100.00
2022-09-27T19:41:13.187Z,100.00
2022-09-27T19:43:41.040Z,100.00
2022-09-27T19:46:12.275Z,100.00
2022-09-27T19:48:39.450Z,100.00
2022-09-27T19:51:06.811Z,100.00
2022-09-27T19:53:35.193Z,100.00
2022-09-27T19:56:05.741Z,100.00
2022-09-27T19:58:35.691Z,100.00
2022-09-27T20:01:12.979Z,100.00
2022-09-27T20:03:41.951Z,100.00
2022-09-27T20:06:11.379Z,100.00
2022-09-27T20:08:38.496Z,100.00
2022-09-27T20:11:08.947Z,100.00
2022-09-27T20:13:37.658Z,100.00
2022-09-27T20:16:07.763Z,100.00
2022-09-27T20:18:39.194Z,100.00
2022-09-27T20:21:06.305Z,100.00
2022-09-27T20:23:34.641Z,100.00
2022-09-27T20:26:03.273Z,100.00
2022-09-27T20:28:30.428Z,100.00
2022-09-27T20:30:59.265Z,100.00
2022-09-27T20:33:26.969Z,100.00
2022-09-27T20:35:54.229Z,100.00
2022-09-27T20:38:21.194Z,100.00
2022-09-27T20:40:56.374Z,100.00
2022-09-27T20:43:23.460Z,100.00
2022-09-27T20:45:50.445Z,100.00
2022-09-27T20:48:17.525Z,100.00
2022-09-27T20:50:44.964Z,100.00
2022-09-27T20:53:11.944Z,100.00
2022-09-27T20:55:38.919Z,100.00
2022-09-27T20:58:05.901Z,100.00
2022-09-27T21:00:34.906Z,100.00
2022-09-27T21:03:01.945Z,100.00
2022-09-27T21:05:28.881Z,100.00
2022-09-27T21:07:55.832Z,100.00
2022-09-27T21:10:22.917Z,100.00
2022-09-27T21:12:51.011Z,100.00
2022-09-27T21:15:17.995Z,100.00
2022-09-27T21:17:44.980Z,100.00
2022-09-27T21:20:11.964Z,100.00
2022-09-27T21:22:38.928Z,100.00
2022-09-27T21:25:06.298Z,100.00
2022-09-27T21:27:33.286Z,100.00
2022-09-27T21:30:00.272Z,100.00
2022-09-27T21:32:27.350Z,100.00
2022-09-27T21:34:54.402Z,100.00
2022-09-27T21:37:21.993Z,100.00
2022-09-27T21:39:48.944Z,100.00
2022-09-27T21:42:15.885Z,100.00
2022-09-27T21:44:42.852Z,100.00
2022-09-27T21:47:09.844Z,100.00
2022-09-27T21:49:36.904Z,100.00
2022-09-27T21:52:03.861Z,100.00
2022-09-27T21:54:30.817Z,100.00
2022-09-27T21:56:57.827Z,100.00
2022-09-27T21:59:24.850Z,100.00
2022-09-27T22:01:51.849Z,100.00
2022-09-27T22:04:18.847Z,100.00
2022-09-27T22:06:45.802Z,100.00
2022-09-27T22:09:16.162Z,100.00
2022-09-27T22:11:44.127Z,100.00
2022-09-27T22:14:11.771Z,100.00
2022-09-27T22:16:39.067Z,100.00
2022-09-27T22:19:06.071Z,100.00
2022-09-27T22:21:35.827Z,100.00
2022-09-27T22:24:07.934Z,100.00
2022-09-27T22:26:38.196Z,100.00
2022-09-27T22:29:06.518Z,100.00
2022-09-27T22:31:33.710Z,100.00
2022-09-27T22:34:04.007Z,100.00
2022-09-27T22:36:32.106Z,100.00
2022-09-27T22:38:59.417Z,100.00
2022-09-27T22:41:26.973Z,100.00
2022-09-27T22:43:53.905Z,100.00
2022-09-27T22:46:21.610Z,100.00
2022-09-27T22:48:49.239Z,100.00
2022-09-27T22:51:16.904Z,100.00
2022-09-27T22:53:43.902Z,100.00
2022-09-27T22:56:18.989Z,100.00
2022-09-27T22:58:47.754Z,100.00
2022-09-27T23:01:20.457Z,100.00
2022-09-27T23:03:49.706Z,100.00
2022-09-27T23:06:18.392Z,100.00
2022-09-27T23:08:45.722Z,100.00
2022-09-27T23:11:15.216Z,100.00
2022-09-27T23:13:43.490Z,100.00
2022-09-27T23:16:22.008Z,100.00
2022-09-27T23:18:52.571Z,100.00
2022-09-27T23:21:19.572Z,100.00
2022-09-27T23:23:46.569Z,100.00
2022-09-27T23:26:15.454Z,100.00
2022-09-27T23:28:43.012Z,100.00
2022-09-27T23:31:15.136Z,100.00
2022-09-27T23:33:46.384Z,100.00
2022-09-27T23:36:15.980Z,100.00
2022-09-27T23:38:44.499Z,100.00
2022-09-27T23:41:12.754Z,100.00
2022-09-27T23:43:39.836Z,100.00
2022-09-27T23:46:08.642Z,100.00
2022-09-27T23:48:36.655Z,100.00
2022-09-27T23:51:05.350Z,100.00
2022-09-27T23:53:32.667Z,100.00
2022-09-27T23:56:04.279Z,100.00
2022-09-27T23:58:36.200Z,100.00
